Time;durP1;ratioP1;P1;durP2;ratioP2;P2;SDS_P1;SDS_P2;PMS_P1;PMS_P2;Temp;Humidity;BMP_temperature;BMP_pressure;BME280_temperature;BME280_humidity;BME280_pressure;Samples;Min_cycle;Max_cycle;Signal;HPM_P1;HPM_P2
2023/08/30 00:00:33;;;;;;;;;;;;;;;16.01;75.14;99231.56;1082750;54;19963;-79
2023/08/30 00:01:36;;;;;;;;;;;;;;;16.02;74.81;99227.84;1082384;47;19950;-79
2023/08/30 00:02:37;;;;;;;;;;;;;;;16.04;74.71;99231.19;1082542;54;19947;-79
2023/08/30 00:03:40;;;;;;;;;;;;;;;16.05;74.99;99222.06;1082744;39;20274;-79
2023/08/30 00:04:41;;;;;;;;;;;;;;;16.06;74.89;99222.88;1082017;54;19999;-79
2023/08/30 00:05:45;;;;;;;;;;;;;;;16.06;74.87;99222.88;1082537;54;20069;-79
2023/08/30 00:06:46;;;;;;;;;;;;;;;16.06;74.60;99234.47;1082900;54;19942;-79
2023/08/30 00:07:52;;;;;;;;;;;;;;;16.02;74.87;99230.53;1082778;54;20445;-79
2023/08/30 00:08:53;;;;;;;;;;;;;;;16.01;74.87;99228.88;1082964;54;19946;-79
2023/08/30 00:09:56;;;;;;;;;;;;;;;15.99;74.87;99230.94;1086185;54;19950;-79
2023/08/30 00:10:58;;;;;;;;;;;;;;;15.96;75.15;99227.81;1085048;54;19950;-79
2023/08/30 00:12:01;;;;;;;;;;;;;;;15.93;74.93;99226.34;1084201;54;19946;-79
2023/08/30 00:13:02;;;;;;;;;;;;;;;15.88;75.51;99215.31;1083853;54;20469;-79
2023/08/30 00:14:08;;;;;;;;;;;;;;;15.84;75.76;99224.84;1083390;54;19954;-80
2023/08/30 00:15:09;;;;;;;;;;;;;;;15.81;75.74;99225.22;1083091;54;19957;-79
2023/08/30 00:16:12;;;;;;;;;;;;;;;15.76;75.88;99217.72;1082373;47;19946;-78
2023/08/30 00:17:13;;;;;;;;;;;;;;;15.72;76.08;99219.16;1082274;54;19958;-79
2023/08/30 00:18:18;;;;;;;;;;;;;;;15.70;76.29;99213.94;1083553;31;20575;-79
2023/08/30 00:19:19;;;;;;;;;;;;;;;15.70;76.36;99216.66;1082898;54;19947;-79
2023/08/30 00:20:20;;;;;;;;;;;;;;;15.68;76.48;99221.41;1082724;54;20639;-79
2023/08/30 00:21:24;;;;;;;;;;;;;;;15.67;76.49;99219.75;1082898;54;19970;-79
2023/08/30 00:22:25;;;;;;;;;;;;;;;15.67;76.62;99222.47;1082167;47;20486;-79
2023/08/30 00:23:30;;;;;;;;;;;;;;;15.69;76.54;99214.16;1082863;54;20038;-79
2023/08/30 00:24:31;;;;;;;;;;;;;;;15.70;76.59;99219.34;1083082;54;19969;-79
2023/08/30 00:25:35;;;;;;;;;;;;;;;15.69;76.40;99224.94;1083100;54;19946;-80
2023/08/30 00:26:36;;;;;;;;;;;;;;;15.71;76.47;99217.50;1082714;54;19947;-79
2023/08/30 00:27:42;;;;;;;;;;;;;;;15.75;76.23;99222.28;1083547;39;20424;-79
2023/08/30 00:28:42;;;;;;;;;;;;;;;15.79;76.43;99219.19;1082897;54;19982;-79
2023/08/30 00:29:46;;;;;;;;;;;;;;;15.72;76.72;99225.38;1082490;47;19998;-80
2023/08/30 00:30:46;;;;;;;;;;;;;;;15.66;76.99;99215.41;1083191;39;20394;-80
2023/08/30 00:34:00;;;;;;;;;;;;;;;15.60;77.03;99224.25;1082315;54;19954;-81
2023/08/30 00:35:08;;;;;;;;;;;;;;;15.54;77.24;99225.06;1082093;54;19946;-81
2023/08/30 00:36:22;;;;;;;;;;;;;;;15.54;77.53;99227.75;1082748;46;19981;-79
2023/08/30 00:39:27;;;;;;;;;;;;;;;15.56;77.17;99209.53;1083620;54;19946;-79
2023/08/30 00:40:37;;;;;;;;;;;;;;;15.55;77.62;99221.34;1082244;54;19947;-78
2023/08/30 00:41:40;;;;;;;;;;;;;;;15.54;77.54;99214.28;1082359;47;19951;-78
2023/08/30 00:42:41;;;;;;;;;;;;;;;15.52;77.42;99216.34;1082054;54;19950;-81
2023/08/30 00:43:42;;;;;;;;;;;;;;;15.50;77.70;99216.53;1082392;54;20006;-80
2023/08/30 00:44:45;;;;;;;;;;;;;;;15.53;77.51;99210.75;1082077;46;19975;-80
2023/08/30 00:45:47;;;;;;;;;;;;;;;15.56;77.24;99217.63;1082204;47;19950;-81
2023/08/30 00:46:50;;;;;;;;;;;;;;;15.60;77.26;99224.25;1082157;47;19950;-81
2023/08/30 00:47:51;;;;;;;;;;;;;;;15.63;77.07;99214.97;1082124;47;19947;-80
2023/08/30 00:48:55;;;;;;;;;;;;;;;15.59;76.87;99211.81;1082224;47;19970;-80
2023/08/30 00:49:55;;;;;;;;;;;;;;;15.49;77.20;99209.47;1082627;39;20485;-79
2023/08/30 00:51:00;;;;;;;;;;;;;;;15.46;77.48;99211.75;1082268;47;19957;-79
2023/08/30 00:52:02;;;;;;;;;;;;;;;15.43;77.74;99211.09;1082241;47;19946;-79
2023/08/30 00:53:05;;;;;;;;;;;;;;;15.40;78.04;99213.34;1082216;54;19951;-78
2023/08/30 00:54:11;;;;;;;;;;;;;;;15.35;78.19;99211.25;1082033;54;19966;-79
2023/08/30 00:55:15;;;;;;;;;;;;;;;15.34;78.37;99206.06;1082224;54;19950;-79
2023/08/30 00:56:18;;;;;;;;;;;;;;;15.33;78.18;99207.09;1082259;47;19985;-79
2023/08/30 00:57:19;;;;;;;;;;;;;;;15.34;78.42;99209.59;1082462;47;19950;-79
2023/08/30 00:58:22;;;;;;;;;;;;;;;15.37;78.30;99205.66;1082293;54;20135;-79
2023/08/30 00:59:24;;;;;;;;;;;;;;;15.40;78.18;99208.78;1082361;47;19947;-79
2023/08/30 01:00:27;;;;;;;;;;;;;;;15.43;77.74;99210.28;1082319;54;19947;-79
2023/08/30 01:01:28;;;;;;;;;;;;;;;15.49;77.66;99214.06;1082251;54;19946;-79
2023/08/30 01:02:31;;;;;;;;;;;;;;;15.51;77.73;99206.59;1082296;54;19958;-78
2023/08/30 01:03:32;;;;;;;;;;;;;;;15.51;77.74;99199.34;1082753;39;20819;-79
2023/08/30 01:04:35;;;;;;;;;;;;;;;15.53;77.44;99209.91;1082129;54;19997;-78
2023/08/30 01:05:36;;;;;;;;;;;;;;;15.55;77.25;99210.56;1082111;54;20644;-78
2023/08/30 01:06:41;;;;;;;;;;;;;;;15.55;77.16;99202.47;1082088;54;19947;-78
2023/08/30 01:07:41;;;;;;;;;;;;;;;15.53;77.00;99204.53;1082002;47;19947;-78
2023/08/30 01:08:45;;;;;;;;;;;;;;;15.51;77.09;99201.19;1082423;47;20083;-79
2023/08/30 01:09:46;;;;;;;;;;;;;;;15.50;77.22;99207.59;1082439;47;19951;-78
2023/08/30 01:11:07;;;;;;;;;;;;;;;15.46;77.19;99206.34;1082810;47;19998;-78
2023/08/30 01:12:10;;;;;;;;;;;;;;;15.42;77.76;99201.34;1082471;47;19951;-79
2023/08/30 01:13:18;;;;;;;;;;;;;;;15.36;77.90;99210.22;1082474;54;19950;-78
2023/08/30 01:14:20;;;;;;;;;;;;;;;15.29;78.10;99209.34;1082809;54;19950;-78
2023/08/30 01:15:29;;;;;;;;;;;;;;;15.25;78.30;99208.06;1082634;39;20743;-79
2023/08/30 01:16:30;;;;;;;;;;;;;;;15.23;78.42;99207.44;1082391;54;19957;-79
2023/08/30 01:17:34;;;;;;;;;;;;;;;15.19;78.76;99206.16;1082551;47;20581;-78
2023/08/30 01:18:39;;;;;;;;;;;;;;;15.15;78.84;99202.19;1082416;54;19954;-79
2023/08/30 01:19:58;;;;;;;;;;;;;;;15.07;79.24;99201.31;1082175;47;20031;-79
2023/08/30 01:21:01;;;;;;;;;;;;;;;15.05;79.84;99197.97;1082443;46;20450;-78
2023/08/30 01:22:07;;;;;;;;;;;;;;;15.04;79.87;99201.69;1082421;47;19957;-78
2023/08/30 01:23:14;;;;;;;;;;;;;;;15.02;79.85;99201.03;1081891;47;20020;-80
2023/08/30 01:24:21;;;;;;;;;;;;;;;14.98;79.69;99207.88;1082436;47;19950;-78
2023/08/30 01:25:39;;;;;;;;;;;;;;;14.97;79.95;99198.13;1082511;54;19946;-81
2023/08/30 01:26:47;;;;;;;;;;;;;;;14.97;80.11;99209.72;1082530;47;19955;-79
2023/08/30 01:27:53;;;;;;;;;;;;;;;14.99;79.97;99214.91;1082436;54;19947;-80
2023/08/30 01:28:56;;;;;;;;;;;;;;;15.06;79.75;99196.13;1081877;47;19954;-78
2023/08/30 01:30:02;;;;;;;;;;;;;;;15.08;79.56;99202.13;1082537;47;20450;-78
2023/08/30 01:31:04;;;;;;;;;;;;;;;15.02;80.04;99195.66;1082362;54;19975;-79
2023/08/30 01:32:10;;;;;;;;;;;;;;;14.99;79.82;99206.84;1082781;31;20625;-78
2023/08/30 01:33:14;;;;;;;;;;;;;;;15.00;79.74;99205.81;1082359;54;19947;-78
2023/08/30 01:34:19;;;;;;;;;;;;;;;14.98;80.11;99199.78;1082669;54;19957;-78
2023/08/30 01:35:21;;;;;;;;;;;;;;;15.01;79.79;99196.72;1082490;47;20029;-79
2023/08/30 01:36:25;;;;;;;;;;;;;;;15.01;80.00;99204.78;1082532;47;19947;-79
2023/08/30 01:37:26;;;;;;;;;;;;;;;15.02;79.67;99206.44;1082399;54;19998;-78
2023/08/30 01:38:30;;;;;;;;;;;;;;;15.05;79.75;99197.97;1083078;54;19954;-79
2023/08/30 01:39:31;;;;;;;;;;;;;;;15.04;79.48;99198.19;1082460;47;19994;-78
2023/08/30 01:40:37;;;;;;;;;;;;;;;15.03;79.93;99197.34;1082510;48;19959;-80
2023/08/30 01:41:39;;;;;;;;;;;;;;;15.04;79.75;99201.69;1082375;47;20045;-78
2023/08/30 01:42:44;;;;;;;;;;;;;;;15.03;79.76;99196.50;1082710;39;20492;-78
2023/08/30 01:43:48;;;;;;;;;;;;;;;15.06;79.68;99196.13;1082544;54;19950;-78
2023/08/30 01:44:54;;;;;;;;;;;;;;;15.06;79.66;99191.56;1082973;54;19975;-78
2023/08/30 01:45:56;;;;;;;;;;;;;;;15.07;79.53;99192.38;1083389;39;20650;-78
2023/08/30 01:47:00;;;;;;;;;;;;;;;15.07;79.44;99190.56;1082880;51;19995;-78
2023/08/30 01:48:02;;;;;;;;;;;;;;;15.08;79.30;99189.53;1082698;54;20668;-79
2023/08/30 01:49:05;;;;;;;;;;;;;;;15.07;79.43;99193.25;1081902;54;19946;-79
2023/08/30 01:50:09;;;;;;;;;;;;;;;15.10;79.34;99183.94;1082424;54;19953;-78
2023/08/30 01:51:10;;;;;;;;;;;;;;;15.09;79.13;99187.66;1083351;39;20350;-78
2023/08/30 01:52:14;;;;;;;;;;;;;;;15.11;79.13;99182.91;1082840;54;19954;-79
2023/08/30 01:53:15;;;;;;;;;;;;;;;15.15;79.02;99188.72;1082795;54;20723;-78
2023/08/30 01:54:20;;;;;;;;;;;;;;;15.15;78.73;99186.03;1082279;51;19993;-78
2023/08/30 01:55:21;;;;;;;;;;;;;;;15.17;78.95;99181.31;1083057;54;19985;-79
2023/08/30 01:56:25;;;;;;;;;;;;;;;15.17;78.56;99192.06;1082143;47;20533;-78
2023/08/30 01:57:25;;;;;;;;;;;;;;;15.19;78.92;99190.03;1082030;47;20002;-79
2023/08/30 01:58:29;;;;;;;;;;;;;;;15.16;78.70;99193.09;1081885;47;19953;-78
2023/08/30 01:59:32;;;;;;;;;;;;;;;15.19;78.49;99190.03;1082233;54;19946;-79
2023/08/30 02:00:35;;;;;;;;;;;;;;;15.20;78.39;99186.31;1081900;47;19977;-78
2023/08/30 02:01:36;;;;;;;;;;;;;;;15.16;78.82;99185.84;1082265;54;19950;-78
2023/08/30 02:02:39;;;;;;;;;;;;;;;15.20;78.67;99191.69;1082110;47;19990;-79
2023/08/30 02:03:43;;;;;;;;;;;;;;;15.23;78.23;99191.28;1082246;54;20010;-79
2023/08/30 02:04:46;;;;;;;;;;;;;;;15.22;78.29;99185.06;1081933;47;20700;-79
2023/08/30 02:05:55;;;;;;;;;;;;;;;15.20;78.28;99191.69;1082279;47;19951;-79
2023/08/30 02:07:01;;;;;;;;;;;;;;;15.19;78.37;99190.84;1083054;54;19947;-78
2023/08/30 02:08:05;;;;;;;;;;;;;;;15.15;78.24;99189.59;1081778;54;20475;-79
2023/08/30 02:09:12;;;;;;;;;;;;;;;15.17;78.42;99192.06;1082377;47;19954;-79
2023/08/30 02:10:16;;;;;;;;;;;;;;;15.15;78.40;99196.81;1082284;54;19946;-79
2023/08/30 02:11:21;;;;;;;;;;;;;;;15.09;79.16;99190.34;1083192;54;19950;-78
2023/08/30 02:12:24;;;;;;;;;;;;;;;15.02;79.33;99198.34;1083214;54;19950;-78
2023/08/30 02:13:26;;;;;;;;;;;;;;;15.03;79.42;99191.13;1083147;54;19990;-78
2023/08/30 02:14:30;;;;;;;;;;;;;;;14.95;79.58;99195.63;1082467;54;19946;-78
2023/08/30 02:15:36;;;;;;;;;;;;;;;14.89;80.95;99201.78;1082290;47;19965;-78
2023/08/30 02:16:40;;;;;;;;;;;;;;;14.81;80.58;99199.22;1082017;47;19951;-78
2023/08/30 02:17:40;;;;;;;;;;;;;;;14.82;80.85;99199.03;1082578;54;19976;-78
2023/08/30 02:18:44;;;;;;;;;;;;;;;14.78;80.53;99195.06;1083046;39;20731;-78
2023/08/30 02:19:45;;;;;;;;;;;;;;;14.80;80.96;99198.41;1082682;54;19946;-78
2023/08/30 02:20:49;;;;;;;;;;;;;;;14.76;80.90;99189.03;1083091;54;19955;-78
2023/08/30 02:21:50;;;;;;;;;;;;;;;14.72;80.66;99193.16;1082666;54;19946;-78
2023/08/30 02:22:55;;;;;;;;;;;;;;;14.66;80.42;99192.06;1082276;47;19951;-78
2023/08/30 02:23:56;;;;;;;;;;;;;;;14.68;80.60;99199.94;1082365;47;19951;-78
2023/08/30 02:24:57;;;;;;;;;;;;;;;14.72;80.16;99193.16;1082236;47;20045;-78
2023/08/30 02:26:03;;;;;;;;;;;;;;;14.73;80.26;99197.50;1084179;54;19977;-78
2023/08/30 02:27:03;;;;;;;;;;;;;;;14.72;80.73;99198.53;1085574;54;20002;-78
2023/08/30 02:28:07;;;;;;;;;;;;;;;14.68;80.87;99202.63;1085332;54;19947;-78
2023/08/30 02:29:09;;;;;;;;;;;;;;;14.72;81.04;99198.53;1084605;47;20010;-78
2023/08/30 02:30:14;;;;;;;;;;;;;;;14.74;80.36;99209.09;1084743;54;19957;-78
2023/08/30 02:31:18;;;;;;;;;;;;;;;14.73;80.77;99202.91;1085225;54;19947;-78
2023/08/30 02:32:22;;;;;;;;;;;;;;;14.71;80.49;99199.56;1084897;54;19973;-77
2023/08/30 02:33:23;;;;;;;;;;;;;;;14.62;80.94;99206.88;1084415;54;19969;-78
2023/08/30 02:34:26;;;;;;;;;;;;;;;14.64;81.02;99212.09;1083744;39;20624;-78
2023/08/30 02:35:27;;;;;;;;;;;;;;;14.58;81.86;99202.06;1083156;54;19962;-77
2023/08/30 02:36:30;;;;;;;;;;;;;;;14.59;82.32;99206.44;1082968;54;19947;-78
2023/08/30 02:37:31;;;;;;;;;;;;;;;14.64;81.74;99207.53;1083054;54;19976;-78
2023/08/30 02:38:34;;;;;;;;;;;;;;;14.68;81.06;99213.38;1082862;54;19994;-78
2023/08/30 02:39:35;;;;;;;;;;;;;;;14.70;81.00;99208.66;1082427;47;19950;-79
2023/08/30 02:40:38;;;;;;;;;;;;;;;14.75;80.78;99213.44;1082520;54;20568;-80
2023/08/30 02:41:40;;;;;;;;;;;;;;;14.77;80.52;99214.91;1083194;54;19962;-78
2023/08/30 02:42:43;;;;;;;;;;;;;;;14.76;80.38;99207.88;1082779;54;19947;-80
2023/08/30 02:43:44;;;;;;;;;;;;;;;14.73;80.41;99213.66;1082400;47;19989;-78
2023/08/30 02:44:47;;;;;;;;;;;;;;;14.74;80.47;99212.59;1082341;54;20533;-78
2023/08/30 02:45:48;;;;;;;;;;;;;;;14.76;80.62;99207.06;1082827;54;19946;-78
2023/08/30 02:46:54;;;;;;;;;;;;;;;14.73;80.26;99208.28;1082269;47;20505;-78
2023/08/30 02:47:55;;;;;;;;;;;;;;;14.73;80.68;99199.34;1082771;54;19957;-78
2023/08/30 02:48:58;;;;;;;;;;;;;;;14.70;80.96;99215.88;1083013;54;19958;-78
2023/08/30 02:49:59;;;;;;;;;;;;;;;14.69;80.58;99211.53;1082697;54;19946;-78
2023/08/30 02:51:02;;;;;;;;;;;;;;;14.65;81.01;99217.25;1082850;54;19959;-77
2023/08/30 02:52:04;;;;;;;;;;;;;;;14.58;81.63;99212.84;1082330;47;19985;-78
2023/08/30 02:53:08;;;;;;;;;;;;;;;14.54;81.83;99212.38;1081954;54;20015;-77
2023/08/30 02:54:09;;;;;;;;;;;;;;;14.51;81.77;99210.06;1082945;31;20548;-78
2023/08/30 02:55:12;;;;;;;;;;;;;;;14.50;81.78;99219.16;1081967;54;19950;-78
2023/08/30 02:56:13;;;;;;;;;;;;;;;14.49;82.35;99212.97;1082116;54;20537;-78
2023/08/30 02:57:16;;;;;;;;;;;;;;;14.48;82.39;99218.53;1081921;47;20003;-78
2023/08/30 02:58:17;;;;;;;;;;;;;;;14.46;82.48;99213.31;1082044;54;19958;-78
2023/08/30 02:59:20;;;;;;;;;;;;;;;14.44;82.72;99210.03;1081962;47;19946;-79
2023/08/30 03:00:21;;;;;;;;;;;;;;;14.44;82.51;99210.03;1082260;54;19947;-78
2023/08/30 03:01:26;;;;;;;;;;;;;;;14.42;82.90;99214.75;1082139;46;19994;-78
2023/08/30 03:02:30;;;;;;;;;;;;;;;14.40;82.89;99214.09;1082206;51;20006;-78
2023/08/30 03:03:33;;;;;;;;;;;;;;;14.41;82.71;99221.16;1081812;47;19954;-78
2023/08/30 03:04:34;;;;;;;;;;;;;;;14.41;82.77;99215.78;1082091;47;19951;-78
2023/08/30 03:05:37;;;;;;;;;;;;;;;14.42;82.83;99217.44;1082296;46;19946;-79
2023/08/30 03:06:39;;;;;;;;;;;;;;;14.44;82.78;99225.31;1082128;54;19950;-78
2023/08/30 03:07:42;;;;;;;;;;;;;;;14.42;82.86;99211.22;1082027;54;19998;-79
2023/08/30 03:08:43;;;;;;;;;;;;;;;14.42;83.16;99217.44;1082059;47;19946;-77
2023/08/30 03:09:45;;;;;;;;;;;;;;;14.44;83.13;99214.56;1082119;47;20611;-78
2023/08/30 03:10:49;;;;;;;;;;;;;;;14.46;83.14;99217.88;1082055;47;19946;-79
2023/08/30 03:11:50;;;;;;;;;;;;;;;14.43;82.99;99220.94;1081842;54;19950;-78
2023/08/30 03:12:53;;;;;;;;;;;;;;;14.46;83.22;99212.50;1082239;47;20050;-78
2023/08/30 03:13:54;;;;;;;;;;;;;;;14.44;83.24;99209.16;1082377;54;19950;-78
2023/08/30 03:14:57;;;;;;;;;;;;;;;14.44;82.99;99210.03;1082594;39;20866;-78
2023/08/30 03:15:58;;;;;;;;;;;;;;;14.42;83.39;99204.00;1082134;47;19946;-78
2023/08/30 03:16:59;;;;;;;;;;;;;;;14.46;82.88;99207.94;1082040;54;19953;-78
2023/08/30 03:18:06;;;;;;;;;;;;;;;14.46;83.11;99209.81;1082337;47;19973;-78
2023/08/30 03:19:06;;;;;;;;;;;;;;;14.46;83.11;99202.56;1082877;39;20373;-79
2023/08/30 03:20:10;;;;;;;;;;;;;;;14.45;82.90;99200.91;1082634;54;19953;-78
2023/08/30 03:21:11;;;;;;;;;;;;;;;14.43;83.06;99205.66;1082547;54;20074;-78
2023/08/30 03:22:14;;;;;;;;;;;;;;;14.44;83.21;99201.09;1082392;47;19994;-78
2023/08/30 03:23:15;;;;;;;;;;;;;;;14.47;83.20;99204.25;1082471;54;19950;-78
2023/08/30 03:24:18;;;;;;;;;;;;;;;14.47;83.06;99209.63;1083308;39;20753;-78
2023/08/30 03:25:19;;;;;;;;;;;;;;;14.50;82.77;99197.63;1082633;47;19966;-78
2023/08/30 03:26:22;;;;;;;;;;;;;;;14.49;83.03;99207.56;1082772;39;20430;-79
2023/08/30 03:27:24;;;;;;;;;;;;;;;14.50;83.03;99203.03;1082618;54;19994;-78
2023/08/30 03:28:25;;;;;;;;;;;;;;;14.51;82.90;99199.31;1083146;39;20706;-78
2023/08/30 03:29:28;;;;;;;;;;;;;;;14.49;82.91;99204.06;1082530;54;19977;-78
2023/08/30 03:30:29;;;;;;;;;;;;;;;14.47;83.14;99200.72;1082524;47;19946;-78
2023/08/30 03:31:33;;;;;;;;;;;;;;;14.47;82.97;99208.81;1082446;54;19951;-79
2023/08/30 03:32:34;;;;;;;;;;;;;;;14.47;83.12;99204.25;1082307;47;19953;-78
2023/08/30 03:33:38;;;;;;;;;;;;;;;14.48;82.83;99205.91;1082330;54;19946;-78
2023/08/30 03:34:41;;;;;;;;;;;;;;;14.46;82.82;99201.75;1082562;54;19946;-78
2023/08/30 03:35:42;;;;;;;;;;;;;;;14.41;83.24;99205.00;1082728;47;20010;-78
2023/08/30 03:36:50;;;;;;;;;;;;;;;14.43;83.41;99202.13;1082605;47;19958;-78
2023/08/30 03:37:51;;;;;;;;;;;;;;;14.45;83.37;99208.16;1082648;54;19950;-78
2023/08/30 03:38:54;;;;;;;;;;;;;;;14.48;83.31;99208.59;1082193;47;19946;-78
2023/08/30 03:39:55;;;;;;;;;;;;;;;14.43;83.42;99204.81;1082205;47;19947;-78
2023/08/30 03:41:00;;;;;;;;;;;;;;;14.40;83.84;99206.03;1082137;47;19951;-79
2023/08/30 03:42:00;;;;;;;;;;;;;;;14.42;83.33;99208.53;1082610;54;19947;-77
2023/08/30 03:43:04;;;;;;;;;;;;;;;14.43;83.29;99205.66;1082443;54;19958;-77
2023/08/30 03:44:05;;;;;;;;;;;;;;;14.42;83.47;99197.75;1082177;54;19946;-78
2023/08/30 03:45:09;;;;;;;;;;;;;;;14.37;83.73;99203.72;1082298;54;19960;-78
2023/08/30 03:46:11;;;;;;;;;;;;;;;14.38;83.90;99208.06;1082531;54;20792;-80
2023/08/30 03:47:14;;;;;;;;;;;;;;;14.37;83.78;99203.72;1082286;54;19966;-79
2023/08/30 03:48:15;;;;;;;;;;;;;;;14.40;83.95;99208.72;1082412;47;19950;-78
2023/08/30 03:49:21;;;;;;;;;;;;;;;14.35;84.16;99208.47;1082276;54;19999;-78
2023/08/30 03:50:22;;;;;;;;;;;;;;;14.29;84.53;99206.53;1082100;47;20618;-78
2023/08/30 03:51:25;;;;;;;;;;;;;;;14.32;84.43;99209.66;1082426;47;19950;-78
2023/08/30 03:52:26;;;;;;;;;;;;;;;14.32;83.97;99206.97;1082418;54;19974;-78
2023/08/30 03:53:29;;;;;;;;;;;;;;;14.27;84.58;99204.03;1083035;31;20495;-78
2023/08/30 03:54:31;;;;;;;;;;;;;;;14.27;84.76;99208.56;1082292;47;19971;-78
2023/08/30 03:55:34;;;;;;;;;;;;;;;14.28;84.70;99212.91;1082503;54;19954;-78
2023/08/30 03:56:36;;;;;;;;;;;;;;;14.25;85.02;99216.00;1082472;47;20904;-78
2023/08/30 03:57:39;;;;;;;;;;;;;;;14.28;84.91;99205.69;1083578;47;20014;-81
2023/08/30 03:58:40;;;;;;;;;;;;;;;14.25;84.98;99205.25;1083092;39;20426;-78
2023/08/30 03:59:43;;;;;;;;;;;;;;;14.24;84.84;99204.41;1081831;47;19946;-77
2023/08/30 04:00:44;;;;;;;;;;;;;;;14.22;85.09;99213.69;1081190;54;19954;-77
2023/08/30 04:01:47;;;;;;;;;;;;;;;14.27;84.89;99211.25;1081220;39;20416;-77
2023/08/30 04:02:49;;;;;;;;;;;;;;;14.28;84.84;99199.47;1080962;54;19981;-77
2023/08/30 04:03:53;;;;;;;;;;;;;;;14.27;84.72;99204.03;1081222;54;20494;-77
2023/08/30 04:04:56;;;;;;;;;;;;;;;14.31;84.58;99215.25;1081643;54;19953;-77
2023/08/30 04:05:57;;;;;;;;;;;;;;;14.32;84.57;99198.09;1081990;54;19954;-76
2023/08/30 04:07:01;;;;;;;;;;;;;;;14.30;84.74;99200.97;1082265;54;19946;-77
2023/08/30 04:08:02;;;;;;;;;;;;;;;14.31;84.41;99205.31;1082607;39;20404;-77
2023/08/30 04:09:06;;;;;;;;;;;;;;;14.24;85.19;99199.03;1081726;39;20454;-77
2023/08/30 04:10:07;;;;;;;;;;;;;;;14.29;84.81;99203.84;1081536;46;19954;-78
2023/08/30 04:11:10;;;;;;;;;;;;;;;14.29;84.53;99202.00;1081404;54;19947;-77
2023/08/30 04:12:11;;;;;;;;;;;;;;;14.28;84.73;99194.09;1081919;47;19981;-77
2023/08/30 04:13:15;;;;;;;;;;;;;;;14.24;85.21;99195.53;1082112;54;19973;-77
2023/08/30 04:14:16;;;;;;;;;;;;;;;14.30;84.68;99205.50;1081960;47;20572;-78
2023/08/30 04:15:20;;;;;;;;;;;;;;;14.33;84.49;99197.88;1082673;39;20710;-78
2023/08/30 04:16:21;;;;;;;;;;;;;;;14.36;84.38;99196.66;1082012;54;19951;-78
2023/08/30 04:17:25;;;;;;;;;;;;;;;14.38;84.15;99194.63;1083322;47;19954;-77
2023/08/30 04:18:25;;;;;;;;;;;;;;;14.36;84.07;99196.66;1083499;54;19958;-79
2023/08/30 04:19:30;;;;;;;;;;;;;;;14.34;84.54;99198.75;1084639;46;19950;-77
2023/08/30 04:20:33;;;;;;;;;;;;;;;14.38;84.25;99200.00;1084275;54;20517;-77
2023/08/30 04:21:37;;;;;;;;;;;;;;;14.38;84.05;99193.81;1083637;47;20075;-78
2023/08/30 04:22:37;;;;;;;;;;;;;;;14.42;84.07;99190.56;1082605;54;20034;-76
2023/08/30 04:23:41;;;;;;;;;;;;;;;14.38;84.17;99193.81;1082397;47;20074;-77
2023/08/30 04:24:42;;;;;;;;;;;;;;;14.37;84.17;99202.91;1081768;54;20011;-78
2023/08/30 04:25:46;;;;;;;;;;;;;;;14.36;84.50;99191.28;1082530;54;20026;-79
2023/08/30 04:26:51;;;;;;;;;;;;;;;14.42;84.24;99195.94;1082710;54;19951;-78
2023/08/30 04:27:54;;;;;;;;;;;;;;;14.47;83.68;99198.88;1082171;47;19951;-78
2023/08/30 04:28:55;;;;;;;;;;;;;;;14.50;83.63;99195.81;1084245;54;20057;-78
2023/08/30 04:29:58;;;;;;;;;;;;;;;14.54;83.42;99203.50;1084667;47;19947;-78
2023/08/30 04:30:59;;;;;;;;;;;;;;;14.56;83.50;99194.22;1085127;54;20572;-78
2023/08/30 04:32:03;;;;;;;;;;;;;;;14.59;83.30;99196.53;1085766;47;19939;-78
2023/08/30 04:33:04;;;;;;;;;;;;;;;14.51;83.42;99193.94;1085436;47;19954;-79
2023/08/30 04:34:07;;;;;;;;;;;;;;;14.54;83.33;99190.06;1083003;47;19953;-79
2023/08/30 04:35:10;;;;;;;;;;;;;;;14.53;83.61;99191.88;1082649;47;19953;-78
2023/08/30 04:36:16;;;;;;;;;;;;;;;14.58;83.22;99196.69;1082085;47;19947;-78
2023/08/30 04:37:18;;;;;;;;;;;;;;;14.62;83.09;99184.53;1081757;47;19946;-78
2023/08/30 04:38:21;;;;;;;;;;;;;;;14.62;83.17;99185.34;1082450;39;20387;-79
2023/08/30 04:39:22;;;;;;;;;;;;;;;14.65;83.06;99189.53;1082049;47;19975;-78
2023/08/30 04:40:27;;;;;;;;;;;;;;;14.61;83.15;99193.63;1082477;54;19966;-79
2023/08/30 04:41:28;;;;;;;;;;;;;;;14.66;82.81;99196.56;1312309;36;79174;-79
2023/08/30 04:42:31;;;;;;;;;;;;;;;14.67;82.73;99187.50;1450082;36;20042;-78
2023/08/30 04:43:32;;;;;;;;;;;;;;;14.70;82.89;99192.50;1308364;36;19947;-78
2023/08/30 04:44:35;;;;;;;;;;;;;;;14.69;82.58;99196.22;1082566;47;20029;-78
2023/08/30 04:45:36;;;;;;;;;;;;;;;14.68;82.97;99194.56;1083310;54;19971;-77
2023/08/30 04:46:43;;;;;;;;;;;;;;;14.64;82.75;99188.69;1084711;54;19968;-77
2023/08/30 04:47:45;;;;;;;;;;;;;;;14.70;82.56;99189.81;1084404;47;19975;-79
2023/08/30 04:48:48;;;;;;;;;;;;;;;14.66;82.60;99192.06;1420447;36;20037;-77
2023/08/30 04:49:50;;;;;;;;;;;;;;;14.65;82.84;99184.97;1102608;36;20065;-79
2023/08/30 04:51:00;;;;;;;;;;;;;;;14.64;82.84;99187.88;1083340;47;19969;-78
2023/08/30 04:52:04;;;;;;;;;;;;;;;14.66;82.98;99193.88;1118843;36;101928;-79
2023/08/30 04:53:08;;;;;;;;;;;;;;;14.64;82.69;99199.47;1083257;51;20004;-78
2023/08/30 04:54:20;;;;;;;;;;;;;;;14.63;83.20;99195.09;1259804;35;19987;-79
2023/08/30 04:55:20;;;;;;;;;;;;;;;14.57;83.18;99193.19;1395745;36;20375;-79
2023/08/30 04:56:24;;;;;;;;;;;;;;;14.54;83.46;99195.44;1157473;36;19999;-79
2023/08/30 04:57:24;;;;;;;;;;;;;;;14.57;83.55;99197.72;1085302;47;19978;-78
2023/08/30 04:58:27;;;;;;;;;;;;;;;14.56;83.35;99191.50;1085191;54;19947;-78
2023/08/30 04:59:28;;;;;;;;;;;;;;;14.54;83.61;99190.06;1085805;47;19954;-79
2023/08/30 05:00:31;;;;;;;;;;;;;;;14.54;83.71;99192.75;1085487;46;19946;-80
2023/08/30 05:01:32;;;;;;;;;;;;;;;14.55;83.83;99187.16;1086825;54;19951;-80
2023/08/30 05:02:35;;;;;;;;;;;;;;;14.56;83.54;99196.03;1086120;38;20326;-79
2023/08/30 05:03:36;;;;;;;;;;;;;;;14.63;83.19;99196.97;1086979;54;19950;-79
2023/08/30 05:04:39;;;;;;;;;;;;;;;14.66;83.37;99191.19;1087495;54;19953;-81
2023/08/30 05:05:40;;;;;;;;;;;;;;;14.66;83.28;99188.50;1086393;54;19969;-79
2023/08/30 05:06:43;;;;;;;;;;;;;;;14.62;83.11;99198.00;1085656;47;19970;-79
2023/08/30 05:07:44;;;;;;;;;;;;;;;14.56;83.83;99193.34;1082743;54;20058;-78
2023/08/30 05:08:47;;;;;;;;;;;;;;;14.56;83.97;99190.66;1084577;47;19954;-78
2023/08/30 05:09:50;;;;;;;;;;;;;;;14.63;83.31;99191.59;1085370;47;19950;-78
2023/08/30 05:10:56;;;;;;;;;;;;;;;14.64;83.39;99190.56;1086334;38;20456;-78
2023/08/30 05:11:56;;;;;;;;;;;;;;;14.62;83.57;99195.31;1085530;46;20449;-79
2023/08/30 05:13:00;;;;;;;;;;;;;;;14.62;83.35;99196.13;1085038;47;20081;-79
2023/08/30 05:14:00;;;;;;;;;;;;;;;14.64;83.41;99193.25;1085666;46;19974;-78
2023/08/30 05:15:03;;;;;;;;;;;;;;;14.64;83.38;99187.88;1086322;54;19954;-79
2023/08/30 05:16:04;;;;;;;;;;;;;;;14.69;82.97;99192.72;1085563;47;19950;-79
2023/08/30 05:17:05;;;;;;;;;;;;;;;14.74;82.97;99191.09;1085205;47;19993;-79
2023/08/30 05:18:08;;;;;;;;;;;;;;;14.72;82.50;99193.16;1085628;54;20426;-79
2023/08/30 05:19:09;;;;;;;;;;;;;;;14.72;82.50;99198.53;1085540;54;19969;-79
2023/08/30 05:20:15;;;;;;;;;;;;;;;14.68;82.63;99189.19;1085419;46;19947;-80
2023/08/30 05:21:16;;;;;;;;;;;;;;;14.68;82.77;99193.72;1085896;47;19974;-79
2023/08/30 05:22:19;;;;;;;;;;;;;;;14.72;82.72;99195.84;1086599;54;19946;-80
2023/08/30 05:23:20;;;;;;;;;;;;;;;14.71;82.61;99194.19;1086089;54;19973;-79
2023/08/30 05:24:23;;;;;;;;;;;;;;;14.79;81.95;99196.72;1086431;38;20447;-79
2023/08/30 05:25:27;;;;;;;;;;;;;;;14.76;82.21;99197.09;1086616;54;19947;-79
2023/08/30 05:26:30;;;;;;;;;;;;;;;14.76;82.29;99201.66;1086058;46;20073;-79
2023/08/30 05:27:31;;;;;;;;;;;;;;;14.85;81.70;99199.66;1085457;47;19946;-79
2023/08/30 05:28:34;;;;;;;;;;;;;;;14.86;81.41;99202.19;1086010;47;19947;-79
2023/08/30 05:29:35;;;;;;;;;;;;;;;14.77;81.80;99201.47;1085818;47;19962;-80
2023/08/30 05:30:38;;;;;;;;;;;;;;;14.86;81.66;99201.34;1088493;38;20774;-79
2023/08/30 05:31:39;;;;;;;;;;;;;;;14.81;81.58;99201.91;1086196;54;19973;-79
2023/08/30 05:32:42;;;;;;;;;;;;;;;14.79;81.52;99194.03;1085942;47;19990;-79